Accueil
METAR-TAF:

METAR-TAF

Aéroports :

Cherbourg, France

Aéroport de Cherbourg - Maupertus

latitude: 49-39N, longitude: 001-28W, altitude: 138 m

Observation

Le bulletin a été fait il y a 38 minutes, à 08:30 UTC
Vent 12 kt de ouest, variant entre sud-ouest et ouest/nord-ouest
Température 16°C
Humidité 77%
Pression 1021 hPa
Visibilité 10 km ou plus
Nuages épars à une hauteur de 1800 ft
Nuages épars à une hauteur de 2700 ft

METAR: LFRC 190830Z AUTO 27012KT 230V300 9999 SCT018 SCT027 16/12 Q1021 NOSIG

Heure: 11:08 (09:08 UTC)

Prévision

Le bulletin a été fait il y a 1 heure et 8 minutes, à 08:00 UTC
Prévision valable du 19 à 09 UTC au 19 à 18 UTC
Vent 10 kt de ouest
Visibilité 10 km ou plus
Nuages fragmentés à une hauteur de 3000 ft
Temporairement
du 19 à 12 UTC au 19 à 18 UTC
Vent 15 kt de ouest avec des rafales jusqu'à 25 kt

TAF: LFRC 190800Z 1909/1918 27010KT 9999 BKN030 TEMPO 1912/1918 27015G25KT

Observations et prévisions météorologiques de plus de 4000 aéroports (messages METAR et TAF).

Les stations disponibles sont représentées par des disques jaunes et rouges sur la carte.

Passer la souris dessus pour voir le nom de la station.

Cliquer dessus pour voir les observations et prévisions météorologiques.

Pour changer de carte: cliquez sur les boutons verts avec une croix noire pour zoomer, sur le bouton vert avec un tiret pour effectuer un zoom arrière, ou sur les flèches vertes pour les cartes adjacentes.


METAR-TAF: